LPLA METAR and TAF weather

Enter ICAO airport designator
Station Type Date Time Source
LPLA METAR 2021/05/13 00:00 UTC NOAA

LPLA 130000Z /////KT CAVOK 18/14 Q1026


Station Type Date Time Source
LPLA Decoded METAR 2021/05/13 00:00 UTC NOAA

Lajes Acores , Portugal (LPLA) 38-46N 027-06W 54M
May 12, 2021 - 08:00 PM EDT / 2021.05.13 0000 UTC
Visibility: greater than 7 mile(s):0
Temperature: 64 F (18 C)
Dew Point: 57 F (14 C)
Relative Humidity: 77%
Pressure (altimeter): 30.30 in. Hg (1026 hPa)
ob: LPLA 130000Z /////KT CAVOK 18/14 Q1026
cycle: 0

Station Type Date Time Source
LPLA TAF 2021/05/12 18:18 UTC NOAA

TAF LPLA 121708Z 1218/1318 30010KT 9999 FEW025
BECMG 1218/1220 VRB05KT
BECMG 1309/1311 22008KT

Example: see airport list